Time;durP1;ratioP1;P1;durP2;ratioP2;P2;SDS_P1;SDS_P2;PMS_P1;PMS_P2;Temp;Humidity;BMP_temperature;BMP_pressure;BME280_temperature;BME280_humidity;BME280_pressure;Samples;Min_cycle;Max_cycle;Signal;HPM_P1;HPM_P2
2022/04/08 00:02:05;;;;;;;21.30;4.30;;;;;;;5.72;84.31;99684.53;5045624;28;20028;-67
2022/04/08 00:04:32;;;;;;;23.65;4.55;;;;;;;5.73;84.13;99685.41;5045717;28;20550;-67
2022/04/08 00:06:58;;;;;;;23.30;4.68;;;;;;;5.79;84.11;99691.81;5045664;28;20029;-66
2022/04/08 00:09:23;;;;;;;18.08;3.97;;;;;;;5.77;83.95;99689.31;5044365;28;20032;-66
2022/04/08 00:11:49;;;;;;;26.90;4.38;;;;;;;5.77;84.56;99685.75;5045365;28;20154;-67
2022/04/08 00:14:14;;;;;;;22.15;3.70;;;;;;;5.80;84.17;99691.59;5045499;28;20044;-67
2022/04/08 00:16:39;;;;;;;22.00;3.65;;;;;;;5.78;84.37;99712.78;5045945;28;20033;-67
2022/04/08 00:19:04;;;;;;;28.00;4.88;;;;;;;5.82;84.55;99713.16;5044433;28;20538;-67
2022/04/08 00:21:30;;;;;;;24.65;3.88;;;;;;;5.81;84.33;99719.66;5043725;28;20072;-67
2022/04/08 00:23:55;;;;;;;28.38;4.95;;;;;;;5.82;84.75;99729.50;5045864;28;20021;-67
2022/04/08 00:26:20;;;;;;;21.98;4.07;;;;;;;5.81;85.32;99731.38;5045513;28;20494;-67
2022/04/08 00:28:45;;;;;;;21.70;4.93;;;;;;;5.81;84.63;99734.09;5042942;28;20029;-67
2022/04/08 00:31:12;;;;;;;24.02;3.63;;;;;;;5.82;84.23;99740.38;5043593;28;20033;-67
2022/04/08 00:33:37;;;;;;;25.63;4.35;;;;;;;5.82;84.03;99734.94;5044199;28;20021;-67
2022/04/08 00:36:02;;;;;;;26.80;4.03;;;;;;;5.80;83.94;99731.63;5045091;28;20032;-67
2022/04/08 00:38:28;;;;;;;23.23;4.30;;;;;;;5.79;83.39;99746.31;5042987;28;20021;-66
2022/04/08 00:40:53;;;;;;;25.95;4.03;;;;;;;5.80;83.40;99747.97;5044788;28;20051;-67
2022/04/08 00:43:19;;;;;;;27.92;4.20;;;;;;;5.76;83.14;99744.03;5044438;28;20167;-67
2022/04/08 00:45:45;;;;;;;24.73;4.30;;;;;;;5.75;83.12;99751.38;5044375;28;20021;-67
2022/04/08 00:48:10;;;;;;;24.15;4.70;;;;;;;5.73;83.46;99751.59;5045183;28;20764;-67
2022/04/08 00:50:43;;;;;;;18.13;3.65;;;;;;;5.72;82.91;99755.38;5044343;28;20021;-67
2022/04/08 00:53:09;;;;;;;20.30;4.40;;;;;;;5.76;82.24;99761.19;5034128;28;20107;-67
2022/04/08 00:55:35;;;;;;;17.45;3.67;;;;;;;5.70;82.87;99765.66;5037322;28;20481;-67
2022/04/08 00:58:03;;;;;;;21.20;3.38;;;;;;;5.73;82.78;99778.03;5044638;28;20066;-67
2022/04/08 01:00:32;;;;;;;17.60;4.10;;;;;;;5.68;81.88;99772.41;5041213;28;20104;-67
2022/04/08 01:02:57;;;;;;;21.75;2.90;;;;;;;5.60;81.98;99778.13;5044881;28;20464;-67
2022/04/08 01:05:23;;;;;;;20.40;3.40;;;;;;;5.54;82.55;99776.31;5044764;28;20052;-66
2022/04/08 01:07:48;;;;;;;21.67;3.33;;;;;;;5.47;82.55;99782.66;5043356;28;20451;-66
2022/04/08 01:10:14;;;;;;;21.70;3.60;;;;;;;5.43;82.36;99797.78;5043283;28;20021;-66
2022/04/08 01:12:39;;;;;;;17.50;3.30;;;;;;;5.40;82.38;99797.38;5044285;28;20102;-67
2022/04/08 01:15:05;;;;;;;23.67;3.75;;;;;;;5.43;82.81;99802.41;5040253;28;20092;-67
2022/04/08 01:17:31;;;;;;;26.00;4.15;;;;;;;5.43;82.64;99802.41;5034441;28;20028;-67
2022/04/08 01:19:56;;;;;;;20.90;3.60;;;;;;;5.41;83.08;99805.31;5043799;28;20029;-67
2022/04/08 01:22:22;;;;;;;21.77;3.85;;;;;;;5.39;83.07;99793.00;5043445;28;20025;-67
2022/04/08 01:24:49;;;;;;;26.15;3.97;;;;;;;5.37;82.64;99804.13;5044543;28;20037;-67
2022/04/08 01:27:19;;;;;;;25.23;4.13;;;;;;;5.35;83.11;99811.66;5043995;28;20025;-67
2022/04/08 01:29:45;;;;;;;23.35;3.40;;;;;;;5.40;83.02;99813.72;5042151;28;20039;-67
2022/04/08 01:32:10;;;;;;;20.75;3.40;;;;;;;5.38;84.60;99826.72;5040743;28;20025;-67
2022/04/08 01:34:35;;;;;;;24.50;4.50;;;;;;;5.36;86.04;99823.38;5044631;28;20047;-67
2022/04/08 01:37:01;;;;;;;18.90;3.90;;;;;;;5.19;85.81;99831.28;5043316;28;20025;-67
2022/04/08 01:39:26;;;;;;;20.25;4.05;;;;;;;5.06;86.68;99826.75;5042834;28;20033;-67
2022/04/08 01:41:51;;;;;;;22.88;5.10;;;;;;;4.97;87.30;99832.66;5043931;28;20665;-67
2022/04/08 01:44:16;;;;;;;23.13;3.65;;;;;;;4.91;87.40;99829.75;5042083;28;20021;-67
2022/04/08 01:46:42;;;;;;;23.08;3.90;;;;;;;4.87;88.12;99831.28;5043126;28;20028;-67
2022/04/08 01:49:07;;;;;;;20.50;4.07;;;;;;;4.85;88.08;99835.25;5043893;28;20029;-67
2022/04/08 01:51:32;;;;;;;21.13;4.55;;;;;;;4.82;89.36;99827.53;5042694;28;20423;-67
2022/04/08 01:53:57;;;;;;;25.30;4.35;;;;;;;4.80;89.05;99835.06;5043140;28;20029;-67
2022/04/08 01:56:22;;;;;;;22.00;3.97;;;;;;;4.80;90.19;99829.63;5042527;28;20036;-67
2022/04/08 01:58:48;;;;;;;18.92;3.92;;;;;;;4.81;89.49;99840.28;5044140;28;20036;-67
2022/04/08 02:01:13;;;;;;;29.30;5.43;;;;;;;4.76;89.44;99837.38;5043421;28;20384;-67
2022/04/08 02:03:38;;;;;;;17.92;3.85;;;;;;;4.76;89.24;99842.81;5043489;28;20041;-67
2022/04/08 02:06:04;;;;;;;28.70;4.50;;;;;;;4.76;89.09;99842.81;5041116;28;20487;-67
2022/04/08 02:08:29;;;;;;;21.00;4.35;;;;;;;4.79;88.81;99849.72;5043421;28;20044;-67
2022/04/08 02:10:54;;;;;;;18.02;3.72;;;;;;;4.80;89.01;99862.28;5043410;28;20024;-67
2022/04/08 02:13:20;;;;;;;22.38;3.50;;;;;;;4.81;86.46;99863.94;5043512;28;20501;-67
2022/04/08 02:15:46;;;;;;;15.77;3.17;;;;;;;4.73;86.92;99867.75;5042833;28;20033;-67
2022/04/08 02:18:12;;;;;;;12.73;3.67;;;;;;;4.65;87.16;99881.59;5037299;28;20396;-67
2022/04/08 02:20:37;;;;;;;16.30;3.42;;;;;;;4.53;87.61;99876.00;5036264;28;20029;-66
2022/04/08 02:23:03;;;;;;;15.68;4.15;;;;;;;4.46;88.62;99871.63;5042176;28;20037;-67
2022/04/08 02:25:28;;;;;;;15.10;2.80;;;;;;;4.32;88.34;99866.25;5042610;28;20021;-67
2022/04/08 02:27:54;;;;;;;11.98;3.03;;;;;;;4.27;88.52;99871.50;5043001;28;20033;-67
2022/04/08 02:30:19;;;;;;;11.70;2.85;;;;;;;4.20;88.73;99867.13;5032951;28;20060;-67
2022/04/08 02:32:45;;;;;;;12.43;3.00;;;;;;;4.11;89.09;99861.09;5023848;28;20492;-67
2022/04/08 02:35:10;;;;;;;15.82;2.50;;;;;;;4.09;89.00;99872.16;5039233;28;20092;-67
2022/04/08 02:37:36;;;;;;;14.38;3.88;;;;;;;4.05;89.24;99868.19;5042349;28;20029;-67
2022/04/08 02:40:02;;;;;;;11.02;2.50;;;;;;;4.09;88.83;99863.16;5043294;28;20021;-67
2022/04/08 02:42:30;;;;;;;12.80;2.65;;;;;;;4.07;88.80;99859.84;5043700;28;20488;-67
2022/04/08 02:44:55;;;;;;;;;;;;;;;4.17;87.96;99862.94;5044098;28;20502;-67
2022/04/08 02:47:20;;;;;;;11.40;2.90;;;;;;;3.94;88.80;99866.13;5041340;28;20011;-67
2022/04/08 02:49:46;;;;;;;16.98;3.38;;;;;;;3.86;89.73;99872.63;5043417;28;20028;-67
2022/04/08 02:52:11;;;;;;;14.52;2.63;;;;;;;3.84;89.71;99873.88;5042414;28;20060;-67
2022/04/08 02:54:36;;;;;;;9.35;2.40;;;;;;;3.87;89.80;99873.47;5042511;28;20099;-67
2022/04/08 02:57:01;;;;;;;11.45;2.97;;;;;;;3.83;90.21;99872.19;5043161;28;20036;-67
2022/04/08 02:59:27;;;;;;;12.40;3.30;;;;;;;3.77;90.06;99873.06;5047181;28;20019;-67
2022/04/08 03:01:52;;;;;;;15.05;3.08;;;;;;;3.72;89.88;99878.28;5047253;28;20029;-67
2022/04/08 03:04:17;;;;;;;14.75;3.35;;;;;;;3.68;90.76;99871.59;5046663;28;20532;-67
2022/04/08 03:06:42;;;;;;;14.45;4.57;;;;;;;3.66;90.62;99879.13;5044187;28;20029;-67
2022/04/08 03:09:08;;;;;;;19.90;3.63;;;;;;;3.66;90.92;99871.81;5046851;28;20055;-67
2022/04/08 03:11:33;;;;;;;16.30;3.75;;;;;;;3.61;91.00;99887.91;5046907;28;20087;-67
2022/04/08 03:14:01;;;;;;;18.50;4.18;;;;;;;3.60;90.77;99881.63;5046778;28;20364;-67
2022/04/08 03:16:26;;;;;;;15.05;3.70;;;;;;;3.55;91.26;99895.00;5046779;28;20029;-67
2022/04/08 03:18:52;;;;;;;16.27;3.83;;;;;;;3.54;91.09;99884.31;5046744;28;20079;-67
2022/04/08 03:21:17;;;;;;;12.82;4.18;;;;;;;3.49;91.26;99887.66;5045312;28;20217;-67
2022/04/08 03:23:43;;;;;;;22.65;4.63;;;;;;;3.46;91.57;99893.53;5045701;28;20057;-67
2022/04/08 03:26:08;;;;;;;15.52;4.35;;;;;;;3.47;91.48;99889.75;5046042;28;20021;-67
2022/04/08 03:28:34;;;;;;;12.80;3.90;;;;;;;3.44;92.04;99895.59;5046537;28;20174;-67
2022/04/08 03:31:01;;;;;;;20.20;6.05;;;;;;;3.46;91.95;99898.94;5046308;28;20094;-67
2022/04/08 03:33:26;;;;;;;19.70;4.70;;;;;;;3.39;92.44;99898.09;5047277;28;20025;-67
2022/04/08 03:35:51;;;;;;;19.00;4.18;;;;;;;3.40;92.56;99905.22;5043922;28;20098;-67
2022/04/08 03:38:16;;;;;;;16.95;4.07;;;;;;;3.43;92.63;99907.50;5046145;28;20479;-67
2022/04/08 03:40:42;;;;;;;23.08;4.32;;;;;;;3.37;92.79;99914.59;5046257;28;20024;-67
2022/04/08 03:43:07;;;;;;;20.00;5.32;;;;;;;3.33;92.95;99904.34;5045967;28;20035;-67
2022/04/08 03:45:32;;;;;;;20.27;4.47;;;;;;;3.37;93.11;99913.75;5027639;28;20036;-67
2022/04/08 03:47:57;;;;;;;18.13;4.10;;;;;;;3.39;93.07;99914.38;5042985;28;20033;-66
2022/04/08 03:50:23;;;;;;;18.42;4.70;;;;;;;3.35;93.00;99918.56;5046299;28;20039;-67
2022/04/08 03:52:48;;;;;;;19.55;4.10;;;;;;;3.36;93.12;99917.53;5045399;28;20072;-67
2022/04/08 03:55:13;;;;;;;22.30;4.93;;;;;;;3.37;92.69;99914.59;5044541;28;20052;-67
2022/04/08 03:57:39;;;;;;;21.08;4.35;;;;;;;3.30;93.07;99919.19;5045434;28;20037;-67
2022/04/08 04:00:05;;;;;;;16.67;4.32;;;;;;;3.29;93.17;99925.63;5046255;28;20380;-67
2022/04/08 04:02:31;;;;;;;16.90;4.75;;;;;;;3.27;93.47;99921.47;5046200;28;20095;-67
2022/04/08 04:04:59;;;;;;;21.02;4.50;;;;;;;3.29;92.87;99924.81;5045855;28;20476;-67
2022/04/08 04:07:26;;;;;;;19.65;4.13;;;;;;;3.27;92.95;99916.03;5044084;28;20423;-67
2022/04/08 04:09:51;;;;;;;26.00;4.57;;;;;;;3.23;92.94;99920.19;5044704;28;20116;-67
2022/04/08 04:12:16;;;;;;;14.55;4.38;;;;;;;3.22;93.12;99919.38;5045146;28;20111;-67
2022/04/08 04:14:42;;;;;;;20.23;4.75;;;;;;;3.21;92.61;99911.44;5045996;28;20396;-68
2022/04/08 04:17:07;;;;;;;27.02;4.65;;;;;;;3.19;92.63;99916.22;5043405;28;20033;-67
2022/04/08 04:19:33;;;;;;;21.70;4.90;;;;;;;3.12;92.92;99917.06;5044895;28;20028;-67
2022/04/08 04:21:58;;;;;;;16.00;4.43;;;;;;;3.13;92.62;99916.00;5044124;28;20044;-67
2022/04/08 04:24:23;;;;;;;14.05;4.88;;;;;;;3.13;92.37;99907.88;5045983;28;20037;-68
2022/04/08 04:26:48;;;;;;;18.42;4.85;;;;;;;3.09;92.67;99908.47;5045353;28;20039;-67
2022/04/08 04:29:14;;;;;;;19.25;4.43;;;;;;;3.06;92.10;99904.31;5043584;28;20040;-67
2022/04/08 04:31:39;;;;;;;18.92;4.57;;;;;;;3.06;91.88;99914.34;5045371;28;20602;-67
2022/04/08 04:34:05;;;;;;;17.27;4.50;;;;;;;3.03;92.49;99912.00;5045336;28;20039;-67
2022/04/08 04:36:30;;;;;;;20.55;4.63;;;;;;;2.98;92.40;99915.34;5042756;28;20029;-67
2022/04/08 04:38:55;;;;;;;14.07;4.93;;;;;;;3.00;92.13;99913.28;5045212;28;20046;-67
2022/04/08 04:41:21;;;;;;;20.65;5.32;;;;;;;2.97;91.83;99916.38;5043654;28;20039;-67
2022/04/08 04:43:46;;;;;;;19.58;5.72;;;;;;;2.95;92.18;99915.75;5044652;28;20028;-67
2022/04/08 04:46:11;;;;;;;15.65;4.70;;;;;;;2.99;91.67;99918.88;5044909;28;20044;-67
2022/04/08 04:48:37;;;;;;;16.15;5.50;;;;;;;2.98;91.89;99919.94;5044247;28;20040;-67
2022/04/08 04:51:02;;;;;;;21.27;5.05;;;;;;;2.93;91.98;99919.72;5042039;28;20044;-67
2022/04/08 04:53:27;;;;;;;13.48;4.30;;;;;;;2.94;92.21;99918.66;5044666;28;20025;-68
2022/04/08 04:55:54;;;;;;;16.45;5.60;;;;;;;2.96;91.85;99919.31;5044868;28;20048;-67
2022/04/08 04:58:20;;;;;;;16.50;5.25;;;;;;;2.93;92.77;99914.28;5044495;28;20028;-67
2022/04/08 05:00:45;;;;;;;20.33;6.05;;;;;;;2.89;93.10;99913.00;5044607;28;20448;-67
2022/04/08 05:03:11;;;;;;;19.98;6.13;;;;;;;2.88;92.45;99912.19;5042998;28;20037;-67
2022/04/08 05:05:37;;;;;;;17.45;5.65;;;;;;;2.85;93.34;99918.03;5042834;28;20029;-67
2022/04/08 05:08:03;;;;;;;25.90;6.90;;;;;;;2.80;93.18;99921.34;5044264;28;20029;-67
2022/04/08 05:10:30;;;;;;;21.75;7.15;;;;;;;2.79;93.49;99911.53;5041856;28;20029;-67
2022/04/08 05:12:55;;;;;;;24.67;8.00;;;;;;;2.80;93.76;99920.50;5044700;28;20421;-67
2022/04/08 05:15:21;;;;;;;20.58;7.90;;;;;;;2.80;93.88;99923.22;5044887;28;20021;-67
2022/04/08 05:17:46;;;;;;;15.27;6.88;;;;;;;2.84;94.13;99919.06;5046813;28;20025;-67
2022/04/08 05:20:12;;;;;;;22.10;7.90;;;;;;;2.82;94.18;99929.28;5041306;28;20021;-67
2022/04/08 05:22:38;;;;;;;15.55;7.38;;;;;;;2.84;94.26;99927.22;5039268;28;20029;-67
2022/04/08 05:25:04;;;;;;;18.50;7.43;;;;;;;2.86;94.79;99923.25;5044036;28;20450;-67
2022/04/08 05:27:37;;;;;;;18.80;7.53;;;;;;;2.93;94.36;99920.53;5044339;28;20032;-67
2022/04/08 05:30:05;;;;;;;18.90;8.85;;;;;;;2.97;94.51;99927.22;5044048;28;20391;-67
2022/04/08 05:32:30;;;;;;;21.53;7.90;;;;;;;3.03;94.46;99920.97;5042630;28;20032;-67
2022/04/08 05:34:55;;;;;;;21.48;8.38;;;;;;;3.16;93.32;99913.94;5041643;28;20298;-67
2022/04/08 05:37:20;;;;;;;17.27;8.13;;;;;;;3.24;93.20;99911.84;5042922;28;20021;-67
2022/04/08 05:39:46;;;;;;;17.98;7.55;;;;;;;3.31;93.20;99906.47;5042779;28;20114;-67
2022/04/08 05:42:11;;;;;;;16.92;6.50;;;;;;;3.43;92.41;99896.63;5042612;28;20716;-67
2022/04/08 05:44:36;;;;;;;14.68;6.93;;;;;;;3.47;92.54;99895.19;5044298;28;20051;-67
2022/04/08 05:47:01;;;;;;;19.15;7.22;;;;;;;3.57;91.86;99894.78;5043436;28;20478;-67
2022/04/08 05:49:27;;;;;;;12.75;6.70;;;;;;;3.64;91.42;99901.88;5044300;28;20082;-67
2022/04/08 05:51:52;;;;;;;17.10;6.22;;;;;;;3.72;91.19;99900.84;5042408;28;20060;-67
2022/04/08 05:54:17;;;;;;;18.00;7.18;;;;;;;3.79;90.46;99895.41;5043313;28;20075;-66
2022/04/08 05:56:42;;;;;;;16.30;6.65;;;;;;;3.84;90.18;99887.44;5043391;28;20605;-66
2022/04/08 05:59:08;;;;;;;16.38;6.78;;;;;;;3.88;90.08;99894.97;5042279;28;20016;-67
2022/04/08 06:01:33;;;;;;;14.48;6.20;;;;;;;3.97;89.55;99898.31;5039886;28;20032;-67
2022/04/08 06:03:58;;;;;;;14.15;6.95;;;;;;;3.97;89.78;99890.16;5041034;28;20775;-67
2022/04/08 06:06:23;;;;;;;17.98;7.45;;;;;;;4.02;89.54;99893.06;5041813;28;20447;-66
2022/04/08 06:08:49;;;;;;;19.33;7.57;;;;;;;4.06;88.93;99888.91;5042795;28;20036;-67
2022/04/08 06:11:14;;;;;;;16.13;7.32;;;;;;;4.06;89.15;99893.50;5043114;28;20082;-66
2022/04/08 06:13:40;;;;;;;19.27;8.85;;;;;;;4.06;89.47;99897.06;5041707;28;20041;-66
2022/04/08 06:16:05;;;;;;;19.63;9.10;;;;;;;4.08;89.62;99894.09;5041644;28;20064;-67
2022/04/08 06:18:30;;;;;;;18.58;8.40;;;;;;;4.13;89.89;99881.56;5042426;28;20076;-66
2022/04/08 06:20:56;;;;;;;18.05;8.43;;;;;;;4.26;89.09;99890.72;5039385;28;20044;-66
2022/04/08 06:23:21;;;;;;;21.08;8.55;;;;;;;4.29;88.52;99893.00;5028571;28;20029;-66
2022/04/08 06:25:48;;;;;;;20.65;9.57;;;;;;;4.34;88.68;99888.59;5034628;28;20083;-66
2022/04/08 06:28:13;;;;;;;22.80;9.57;;;;;;;4.37;88.44;99893.63;5036669;28;20079;-67
2022/04/08 06:30:40;;;;;;;21.75;11.82;;;;;;;4.42;87.86;99899.25;5041391;28;20033;-67
2022/04/08 06:33:07;;;;;;;20.80;10.27;;;;;;;4.53;88.49;99895.03;5044647;28;20029;-67
2022/04/08 06:35:33;;;;;;;27.73;11.38;;;;;;;4.81;87.84;99899.31;5045651;28;20063;-67
2022/04/08 06:38:07;;;;;;;20.80;10.77;;;;;;;5.11;86.72;99875.91;5044910;28;20438;-68
2022/04/08 06:40:39;;;;;;;18.73;10.02;;;;;;;5.63;84.70;99886.66;5030558;28;20030;-67
2022/04/08 06:43:06;;;;;;;20.52;10.57;;;;;;;6.06;82.50;99881.25;5025686;28;20136;-67
2022/04/08 06:45:32;;;;;;;18.08;10.48;;;;;;;6.21;82.57;99859.91;5043812;28;20025;-67
2022/04/08 06:47:57;;;;;;;20.42;10.68;;;;;;;6.24;81.85;99861.38;5045572;28;20403;-67
2022/04/08 06:50:23;;;;;;;22.75;11.27;;;;;;;6.44;81.99;99861.16;5045555;28;20136;-68
2022/04/08 06:52:49;;;;;;;17.95;10.27;;;;;;;6.60;80.88;99865.97;5046539;28;20310;-68
2022/04/08 06:55:14;;;;;;;19.08;11.25;;;;;;;6.59;80.25;99868.91;5040367;28;20038;-68
2022/04/08 06:57:41;;;;;;;20.23;11.63;;;;;;;6.38;80.81;99856.56;5045533;28;20063;-68
2022/04/08 07:00:10;;;;;;;17.00;10.45;;;;;;;6.25;81.04;99863.03;5047958;28;20049;-68
2022/04/08 07:02:36;;;;;;;17.90;11.82;;;;;;;6.12;81.80;99866.72;5045821;28;20021;-68
2022/04/08 07:05:02;;;;;;;20.17;11.77;;;;;;;6.03;82.09;99868.06;5043749;28;20438;-68
2022/04/08 07:07:37;;;;;;;19.15;10.93;;;;;;;5.98;82.76;99866.03;5044621;28;20048;-68
2022/04/08 07:10:04;;;;;;;19.90;11.98;;;;;;;6.00;83.53;99875.88;5044675;28;20013;-68
2022/04/08 07:12:29;;;;;;;18.88;11.10;;;;;;;6.02;83.27;99871.84;5044701;28;20079;-68
2022/04/08 07:14:55;;;;;;;19.98;11.00;;;;;;;6.07;82.99;99866.56;5044701;28;20024;-68
2022/04/08 07:17:32;;;;;;;18.92;10.88;;;;;;;6.20;83.39;99868.31;5042866;28;20025;-68
2022/04/08 07:19:57;;;;;;;18.45;11.50;;;;;;;6.34;82.03;99860.84;5045254;28;20031;-68
2022/04/08 07:22:23;;;;;;;18.20;10.90;;;;;;;6.36;82.08;99856.81;5043120;28;20037;-68
2022/04/08 07:24:50;;;;;;;19.35;12.05;;;;;;;6.38;81.97;99854.69;5045936;28;20029;-73
2022/04/08 07:27:16;;;;;;;18.80;10.82;;;;;;;6.51;81.51;99856.44;5041761;28;20033;-74
2022/04/08 07:29:41;;;;;;;18.83;11.68;;;;;;;6.51;80.91;99859.16;5044333;28;20029;-73
2022/04/08 07:32:07;;;;;;;19.75;11.00;;;;;;;6.52;81.18;99858.09;5044474;28;20028;-74
2022/04/08 07:34:32;;;;;;;15.73;11.07;;;;;;;6.57;81.10;99858.25;5041736;28;20037;-71
2022/04/08 07:36:57;;;;;;;14.25;9.18;;;;;;;6.68;79.78;99849.28;5043004;28;20032;-71
2022/04/08 07:39:22;;;;;;;19.33;9.35;;;;;;;6.64;79.48;99859.00;5045639;28;20024;-71
2022/04/08 07:41:48;;;;;;;17.08;9.45;;;;;;;6.72;80.07;99853.22;5043965;28;20072;-71
2022/04/08 07:44:13;;;;;;;18.80;9.63;;;;;;;6.83;79.67;99848.88;5044544;28;20044;-71
2022/04/08 07:46:38;;;;;;;14.43;8.27;;;;;;;6.94;78.74;99852.72;5044286;28;20025;-71
2022/04/08 07:49:03;;;;;;;18.23;8.52;;;;;;;6.92;78.41;99854.84;5041965;28;20102;-71
2022/04/08 07:51:29;;;;;;;13.52;8.00;;;;;;;6.95;77.73;99857.13;5033520;28;20031;-70
2022/04/08 07:53:54;;;;;;;14.60;9.07;;;;;;;7.02;79.18;99852.41;5039901;28;20031;-70
2022/04/08 07:56:19;;;;;;;14.52;8.23;;;;;;;7.00;77.28;99849.06;5040842;28;20025;-71
2022/04/08 07:58:47;;;;;;;20.88;8.30;;;;;;;7.00;76.89;99849.06;5040065;28;20029;-71
2022/04/08 08:01:13;;;;;;;15.35;8.20;;;;;;;6.98;77.83;99848.47;5039478;28;20031;-71
2022/04/08 08:03:38;;;;;;;17.55;7.68;;;;;;;7.05;77.46;99848.38;5040442;28;20262;-71
2022/04/08 08:06:04;;;;;;;12.88;8.20;;;;;;;7.05;76.40;99849.22;5043594;28;20025;-71
2022/04/08 08:08:29;;;;;;;16.52;7.57;;;;;;;7.03;77.15;99848.59;5042207;28;20040;-70
2022/04/08 08:10:55;;;;;;;14.05;7.80;;;;;;;7.05;76.61;99842.94;5043135;28;20083;-71
2022/04/08 08:13:21;;;;;;;13.73;7.80;;;;;;;7.06;77.92;99839.94;5038812;28;20023;-71
2022/04/08 08:15:47;;;;;;;13.65;7.38;;;;;;;7.13;75.93;99843.41;5043161;28;20104;-71
2022/04/08 08:18:12;;;;;;;17.17;6.68;;;;;;;7.19;75.64;99844.38;5039422;28;20026;-71
2022/04/08 08:20:37;;;;;;;13.25;7.20;;;;;;;7.15;74.63;99826.81;5040545;28;20435;-70
2022/04/08 08:23:04;;;;;;;12.10;6.45;;;;;;;7.15;75.21;99838.56;5044266;28;20029;-70
2022/04/08 08:25:30;;;;;;;14.32;6.95;;;;;;;7.27;75.09;99833.94;5042639;28;20400;-71
2022/04/08 08:28:01;;;;;;;11.65;6.60;;;;;;;7.36;74.53;99833.63;5044062;28;20036;-70
2022/04/08 08:30:29;;;;;;;13.13;7.13;;;;;;;7.56;74.61;99845.06;5045727;28;20043;-71
2022/04/08 08:32:55;;;;;;;14.30;7.53;;;;;;;7.70;73.25;99834.72;5041226;28;20028;-71
2022/04/08 08:35:20;;;;;;;15.32;6.78;;;;;;;7.77;71.88;99830.81;5041162;28;20040;-71
2022/04/08 08:37:47;;;;;;;13.93;6.78;;;;;;;7.69;73.54;99831.16;5044490;28;20495;-71
2022/04/08 08:40:14;;;;;;;17.08;7.57;;;;;;;7.72;72.32;99825.22;5042811;28;20460;-72
2022/04/08 08:42:42;;;;;;;13.98;7.30;;;;;;;7.77;72.29;99825.34;5032510;28;20037;-71
2022/04/08 08:45:09;;;;;;;15.35;7.22;;;;;;;7.87;71.90;99813.00;5038217;28;20029;-71
2022/04/08 08:47:34;;;;;;;12.13;6.63;;;;;;;7.96;72.26;99800.63;5035212;28;20090;-71
2022/04/08 08:50:00;;;;;;;15.05;6.63;;;;;;;8.01;71.95;99798.00;5038632;28;20106;-72
2022/04/08 08:52:25;;;;;;;18.73;7.90;;;;;;;7.99;71.88;99797.41;5042871;28;20178;-71
2022/04/08 08:54:51;;;;;;;10.63;6.10;;;;;;;8.00;70.92;99791.69;5042286;28;20049;-71
2022/04/08 08:57:20;;;;;;;14.43;6.30;;;;;;;8.16;70.84;99795.59;5043463;28;20769;-72
2022/04/08 08:59:46;;;;;;;13.77;6.30;;;;;;;8.40;69.37;99788.19;5023965;28;20021;-72
2022/04/08 09:02:17;;;;;;;11.82;5.60;;;;;;;8.49;69.17;99775.78;5041654;28;20364;-72
2022/04/08 09:04:43;;;;;;;13.50;5.57;;;;;;;8.62;67.08;99771.94;5042219;28;20120;-71
2022/04/08 09:07:22;;;;;;;21.00;6.35;;;;;;;8.78;67.46;99781.28;5040693;28;20558;-72
2022/04/08 09:09:54;;;;;;;15.90;6.30;;;;;;;8.87;67.56;99773.47;5037303;28;20057;-71
2022/04/08 09:12:23;;;;;;;13.68;6.10;;;;;;;8.88;66.20;99769.69;5043005;28;20032;-71
2022/04/08 09:14:52;;;;;;;11.27;5.50;;;;;;;8.85;66.13;99765.53;5043322;28;20328;-72
2022/04/08 09:17:19;;;;;;;11.23;5.05;;;;;;;8.70;64.27;99766.06;5043011;28;20033;-72
2022/04/08 09:19:49;;;;;;;14.20;4.35;;;;;;;8.65;63.73;99771.44;5042728;28;20443;-71
2022/04/08 09:22:15;;;;;;;12.13;5.13;;;;;;;8.66;63.96;99767.63;5040295;28;20527;-71
2022/04/08 09:24:40;;;;;;;16.05;5.63;;;;;;;8.74;63.15;99771.88;5043183;28;20033;-72
2022/04/08 09:27:06;;;;;;;13.15;6.35;;;;;;;8.76;64.06;99766.97;5041710;28;20033;-72
2022/04/08 09:29:31;;;;;;;13.55;7.03;;;;;;;8.84;65.22;99770.16;5042571;28;20089;-71
2022/04/08 09:31:59;;;;;;;15.82;5.95;;;;;;;8.89;64.86;99768.59;5041972;28;20479;-71
2022/04/08 09:34:24;;;;;;;17.58;5.70;;;;;;;8.86;64.39;99766.34;5043609;28;20036;-71
2022/04/08 09:36:49;;;;;;;12.95;5.55;;;;;;;8.91;64.99;99764.53;5038329;28;20025;-74
2022/04/08 09:39:16;;;;;;;16.67;6.32;;;;;;;8.79;64.63;99769.25;5041577;28;20029;-73
2022/04/08 09:41:48;;;;;;;17.80;7.63;;;;;;;8.69;64.62;99761.66;5042747;28;20032;-74
2022/04/08 09:44:23;;;;;;;15.18;6.18;;;;;;;8.58;65.52;99765.28;5042234;28;20052;-74
2022/04/08 09:46:48;;;;;;;12.85;6.45;;;;;;;8.47;65.68;99755.22;5023302;28;20520;-74
2022/04/08 09:49:14;;;;;;;12.80;6.50;;;;;;;8.52;66.00;99758.06;5023451;28;20036;-73
2022/04/08 09:51:40;;;;;;;15.35;5.65;;;;;;;8.56;63.93;99761.94;5024416;28;20029;-73
2022/04/08 09:54:10;;;;;;;13.13;5.30;;;;;;;8.57;64.49;99759.00;5025262;28;20103;-74
2022/04/08 09:56:36;;;;;;;10.77;4.63;;;;;;;8.58;63.07;99768.03;5040367;28;20043;-74
2022/04/08 09:59:12;;;;;;;14.40;5.00;;;;;;;8.55;63.95;99760.28;5043039;28;20083;-73
2022/04/08 10:01:40;;;;;;;14.23;5.07;;;;;;;8.51;63.43;99759.13;5042942;28;20029;-72
2022/04/08 10:04:07;;;;;;;13.52;4.90;;;;;;;8.53;63.72;99759.72;5041939;28;20033;-72
2022/04/08 10:06:34;;;;;;;14.85;4.60;;;;;;;8.56;64.47;99759.22;5041578;28;20025;-72
2022/04/08 10:09:00;;;;;;;13.45;5.47;;;;;;;8.63;63.66;99750.88;5041930;28;20108;-71
2022/04/08 10:11:45;;;;;;;15.13;5.68;;;;;;;8.80;63.77;99746.25;5024373;28;20113;-72
2022/04/08 10:14:25;;;;;;;16.63;5.05;;;;;;;8.93;63.04;99753.34;5025447;28;20055;-72
2022/04/08 10:16:52;;;;;;;14.82;5.47;;;;;;;9.02;61.23;99754.59;5040627;28;20701;-72
2022/04/08 10:19:20;;;;;;;11.77;5.28;;;;;;;8.99;60.78;99750.44;5036354;28;20374;-71
2022/04/08 10:22:01;;;;;;;15.65;5.45;;;;;;;8.92;62.69;99757.13;5028028;28;20041;-72
2022/04/08 10:24:28;;;;;;;17.58;5.78;;;;;;;8.81;62.13;99748.75;5041219;28;20039;-72
2022/04/08 10:27:04;;;;;;;16.17;6.85;;;;;;;8.82;62.92;99753.16;5036563;28;20029;-71
2022/04/08 10:29:32;;;;;;;15.65;5.90;;;;;;;8.91;62.69;99750.00;5022710;28;20388;-72
2022/04/08 10:32:03;;;;;;;17.70;5.18;;;;;;;8.91;62.41;99750.84;5046416;28;20048;-71
2022/04/08 10:34:32;;;;;;;14.10;5.18;;;;;;;8.73;62.52;99756.53;5048951;28;20075;-67
2022/04/08 10:36:58;;;;;;;18.73;6.47;;;;;;;8.69;62.25;99749.91;5050454;28;20017;-71
2022/04/08 10:39:24;;;;;;;18.45;6.60;;;;;;;8.66;62.63;99744.91;5054339;28;20041;-71
2022/04/08 10:42:03;;;;;;;15.73;5.75;;;;;;;8.72;62.60;99743.94;5048038;28;20025;-71
2022/04/08 10:44:36;;;;;;;18.48;6.07;;;;;;;8.50;62.22;99735.56;5048273;28;20049;-66
2022/04/08 10:47:09;;;;;;;15.27;5.82;;;;;;;8.41;63.46;99739.75;5048193;28;20042;-71
2022/04/08 10:49:45;;;;;;;17.58;6.03;;;;;;;8.42;62.91;99741.44;5049357;28;20029;-71
2022/04/08 10:52:15;;;;;;;14.98;6.03;;;;;;;8.44;64.16;99747.50;5046416;28;20029;-71
2022/04/08 10:54:40;;;;;;;11.13;5.75;;;;;;;8.50;63.90;99747.34;5041157;28;20576;-71
2022/04/08 10:57:05;;;;;;;16.20;5.43;;;;;;;8.56;63.68;99751.00;5040514;28;20067;-71
2022/04/08 10:59:31;;;;;;;13.40;5.85;;;;;;;8.61;62.30;99742.88;5041462;28;20134;-70
2022/04/08 11:01:59;;;;;;;13.65;5.82;;;;;;;8.66;62.03;99742.16;5032369;28;20057;-70
2022/04/08 11:04:27;;;;;;;13.93;5.57;;;;;;;8.81;63.07;99737.78;5023442;28;20459;-71
2022/04/08 11:06:52;;;;;;;14.60;5.97;;;;;;;9.06;62.67;99744.78;5030125;28;20040;-70
2022/04/08 11:09:18;;;;;;;14.63;6.25;;;;;;;9.12;60.69;99741.06;5041408;28;20037;-70
2022/04/08 11:11:46;;;;;;;12.13;6.20;;;;;;;9.01;60.12;99739.22;5042830;28;20025;-70
2022/04/08 11:14:12;;;;;;;;;;;;;;;9.06;62.28;99731.94;5043564;28;20102;-70
2022/04/08 11:16:39;;;;;;;17.70;6.30;;;;;;;9.00;61.38;99715.66;5042849;28;19913;-70
2022/04/08 11:19:05;;;;;;;16.40;6.40;;;;;;;9.03;60.65;99713.28;5044076;28;20040;-70
2022/04/08 11:21:33;;;;;;;19.10;7.60;;;;;;;8.99;61.02;99711.28;5045052;28;20712;-71
2022/04/08 11:24:01;;;;;;;15.48;7.60;;;;;;;9.00;62.36;99732.94;5045832;28;20029;-70
2022/04/08 11:26:28;;;;;;;16.60;6.63;;;;;;;8.91;61.95;99726.19;5044834;28;20037;-70
2022/04/08 11:28:55;;;;;;;14.30;5.90;;;;;;;8.95;61.68;99719.16;5045940;28;20478;-70
2022/04/08 11:31:21;;;;;;;12.52;5.38;;;;;;;9.11;62.92;99720.22;5043617;28;20033;-70